sensor_id;sensor_type;location;lat;lon;timestamp;temperature;humidity
8248;DHT22;4164;49.844;8.830;2023-02-13T00:02:06;6.30;99.90
8248;DHT22;4164;49.844;8.830;2023-02-13T00:04:31;6.30;99.90
8248;DHT22;4164;49.844;8.830;2023-02-13T00:06:57;6.30;99.90
8248;DHT22;4164;49.844;8.830;2023-02-13T00:09:22;6.30;99.90
8248;DHT22;4164;49.844;8.830;2023-02-13T00:11:48;6.40;99.90
8248;DHT22;4164;49.844;8.830;2023-02-13T00:14:13;6.40;99.90
8248;DHT22;4164;49.844;8.830;2023-02-13T00:16:39;6.40;99.90
8248;DHT22;4164;49.844;8.830;2023-02-13T00:19:04;6.30;99.90
8248;DHT22;4164;49.844;8.830;2023-02-13T00:21:30;6.30;99.90
8248;DHT22;4164;49.844;8.830;2023-02-13T00:23:55;6.30;99.90
8248;DHT22;4164;49.844;8.830;2023-02-13T00:26:21;6.40;99.90
8248;DHT22;4164;49.844;8.830;2023-02-13T00:28:46;6.40;99.90
8248;DHT22;4164;49.844;8.830;2023-02-13T00:31:15;6.30;99.90
8248;DHT22;4164;49.844;8.830;2023-02-13T00:33:41;6.50;99.90
8248;DHT22;4164;49.844;8.830;2023-02-13T00:36:09;6.50;99.90
8248;DHT22;4164;49.844;8.830;2023-02-13T00:38:36;6.40;99.90
8248;DHT22;4164;49.844;8.830;2023-02-13T00:41:02;6.50;99.90
8248;DHT22;4164;49.844;8.830;2023-02-13T00:43:28;6.40;99.90
8248;DHT22;4164;49.844;8.830;2023-02-13T00:45:54;6.40;99.90
8248;DHT22;4164;49.844;8.830;2023-02-13T00:48:19;6.30;99.90
8248;DHT22;4164;49.844;8.830;2023-02-13T00:50:46;6.10;99.90
8248;DHT22;4164;49.844;8.830;2023-02-13T00:53:12;6.10;99.90
8248;DHT22;4164;49.844;8.830;2023-02-13T00:55:38;6.10;99.90
8248;DHT22;4164;49.844;8.830;2023-02-13T00:58:03;6.10;99.90
8248;DHT22;4164;49.844;8.830;2023-02-13T01:00:29;6.00;99.90
8248;DHT22;4164;49.844;8.830;2023-02-13T01:02:54;6.00;99.90
8248;DHT22;4164;49.844;8.830;2023-02-13T01:05:20;5.90;99.90
8248;DHT22;4164;49.844;8.830;2023-02-13T01:07:45;5.80;99.90
8248;DHT22;4164;49.844;8.830;2023-02-13T01:10:11;5.70;99.90
8248;DHT22;4164;49.844;8.830;2023-02-13T01:12:36;5.70;99.90
8248;DHT22;4164;49.844;8.830;2023-02-13T01:15:03;5.60;99.90
8248;DHT22;4164;49.844;8.830;2023-02-13T01:17:29;5.60;99.90
8248;DHT22;4164;49.844;8.830;2023-02-13T01:19:54;5.50;99.90
8248;DHT22;4164;49.844;8.830;2023-02-13T01:22:20;5.50;99.90
8248;DHT22;4164;49.844;8.830;2023-02-13T01:24:45;5.50;99.90
8248;DHT22;4164;49.844;8.830;2023-02-13T01:27:11;5.40;99.90
8248;DHT22;4164;49.844;8.830;2023-02-13T01:29:36;5.30;99.90
8248;DHT22;4164;49.844;8.830;2023-02-13T01:32:02;5.20;99.90
8248;DHT22;4164;49.844;8.830;2023-02-13T01:34:30;5.20;99.90
8248;DHT22;4164;49.844;8.830;2023-02-13T01:36:56;5.00;99.90
8248;DHT22;4164;49.844;8.830;2023-02-13T01:39:21;5.10;99.90
8248;DHT22;4164;49.844;8.830;2023-02-13T01:41:47;5.00;99.90
8248;DHT22;4164;49.844;8.830;2023-02-13T01:55:20;4.90;99.90
8248;DHT22;4164;49.844;8.830;2023-02-13T01:57:51;4.80;99.90
8248;DHT22;4164;49.844;8.830;2023-02-13T02:00:18;4.80;99.90
8248;DHT22;4164;49.844;8.830;2023-02-13T02:02:57;4.80;99.90
8248;DHT22;4164;49.844;8.830;2023-02-13T02:05:26;4.70;99.90
8248;DHT22;4164;49.844;8.830;2023-02-13T02:07:54;4.90;99.90
8248;DHT22;4164;49.844;8.830;2023-02-13T02:10:21;4.90;99.90
8248;DHT22;4164;49.844;8.830;2023-02-13T02:12:54;4.90;99.90
8248;DHT22;4164;49.844;8.830;2023-02-13T02:15:23;4.90;99.90
8248;DHT22;4164;49.844;8.830;2023-02-13T02:17:48;4.70;99.90
8248;DHT22;4164;49.844;8.830;2023-02-13T02:23:26;4.50;99.90
8248;DHT22;4164;49.844;8.830;2023-02-13T02:26:26;4.30;99.90
8248;DHT22;4164;49.844;8.830;2023-02-13T02:32:02;4.00;99.90
8248;DHT22;4164;49.844;8.830;2023-02-13T02:40:40;4.00;99.90
8248;DHT22;4164;49.844;8.830;2023-02-13T02:46:09;4.20;99.90
8248;DHT22;4164;49.844;8.830;2023-02-13T02:52:11;4.40;99.90
8248;DHT22;4164;49.844;8.830;2023-02-13T02:54:52;4.40;99.90
8248;DHT22;4164;49.844;8.830;2023-02-13T02:57:42;4.50;99.90
8248;DHT22;4164;49.844;8.830;2023-02-13T03:00:30;4.50;99.90
8248;DHT22;4164;49.844;8.830;2023-02-13T03:03:18;4.50;99.90
8248;DHT22;4164;49.844;8.830;2023-02-13T03:06:22;4.30;99.90
8248;DHT22;4164;49.844;8.830;2023-02-13T03:09:18;4.20;99.90
8248;DHT22;4164;49.844;8.830;2023-02-13T03:12:03;4.20;99.90
8248;DHT22;4164;49.844;8.830;2023-02-13T03:14:48;4.00;99.90
8248;DHT22;4164;49.844;8.830;2023-02-13T03:17:16;3.90;99.90
8248;DHT22;4164;49.844;8.830;2023-02-13T03:23:20;3.90;99.90
8248;DHT22;4164;49.844;8.830;2023-02-13T03:26:17;3.80;99.90
8248;DHT22;4164;49.844;8.830;2023-02-13T03:28:57;3.90;99.90
8248;DHT22;4164;49.844;8.830;2023-02-13T03:32:24;3.50;99.90
8248;DHT22;4164;49.844;8.830;2023-02-13T03:34:58;3.50;99.90
8248;DHT22;4164;49.844;8.830;2023-02-13T03:37:47;3.50;99.90
8248;DHT22;4164;49.844;8.830;2023-02-13T03:40:31;3.40;99.90
8248;DHT22;4164;49.844;8.830;2023-02-13T03:43:09;3.30;99.90
8248;DHT22;4164;49.844;8.830;2023-02-13T03:45:40;3.20;99.90
8248;DHT22;4164;49.844;8.830;2023-02-13T03:48:26;3.00;99.90
8248;DHT22;4164;49.844;8.830;2023-02-13T03:52:03;2.90;99.90
8248;DHT22;4164;49.844;8.830;2023-02-13T03:54:06;2.80;99.90
8248;DHT22;4164;49.844;8.830;2023-02-13T03:56:34;2.70;99.90
8248;DHT22;4164;49.844;8.830;2023-02-13T03:59:25;2.60;99.90
8248;DHT22;4164;49.844;8.830;2023-02-13T04:02:09;2.60;99.90
8248;DHT22;4164;49.844;8.830;2023-02-13T04:04:45;2.60;99.90
8248;DHT22;4164;49.844;8.830;2023-02-13T04:07:16;2.60;99.90
8248;DHT22;4164;49.844;8.830;2023-02-13T04:09:54;2.50;99.90
8248;DHT22;4164;49.844;8.830;2023-02-13T04:12:49;2.50;99.90
8248;DHT22;4164;49.844;8.830;2023-02-13T04:20:40;2.20;99.90
8248;DHT22;4164;49.844;8.830;2023-02-13T04:23:07;2.20;99.90
8248;DHT22;4164;49.844;8.830;2023-02-13T04:25:35;2.40;99.90
8248;DHT22;4164;49.844;8.830;2023-02-13T04:28:01;2.40;99.90
8248;DHT22;4164;49.844;8.830;2023-02-13T04:30:27;2.40;99.90
8248;DHT22;4164;49.844;8.830;2023-02-13T04:32:53;2.40;99.90
8248;DHT22;4164;49.844;8.830;2023-02-13T04:35:18;2.30;99.90
8248;DHT22;4164;49.844;8.830;2023-02-13T04:37:44;2.30;99.90
8248;DHT22;4164;49.844;8.830;2023-02-13T04:40:10;2.30;99.90
8248;DHT22;4164;49.844;8.830;2023-02-13T04:42:35;2.20;99.90
8248;DHT22;4164;49.844;8.830;2023-02-13T04:45:01;2.20;99.90
8248;DHT22;4164;49.844;8.830;2023-02-13T04:47:26;2.20;99.90
8248;DHT22;4164;49.844;8.830;2023-02-13T04:49:52;2.20;99.90
8248;DHT22;4164;49.844;8.830;2023-02-13T04:52:17;2.00;99.90
8248;DHT22;4164;49.844;8.830;2023-02-13T04:54:43;1.90;99.90
8248;DHT22;4164;49.844;8.830;2023-02-13T04:57:08;2.00;99.90
8248;DHT22;4164;49.844;8.830;2023-02-13T04:59:34;2.10;99.90
8248;DHT22;4164;49.844;8.830;2023-02-13T05:02:00;2.00;99.90
8248;DHT22;4164;49.844;8.830;2023-02-13T05:04:25;2.10;99.90
8248;DHT22;4164;49.844;8.830;2023-02-13T05:06:51;1.80;99.90
8248;DHT22;4164;49.844;8.830;2023-02-13T05:09:16;1.60;99.90
8248;DHT22;4164;49.844;8.830;2023-02-13T05:11:42;1.70;99.90
8248;DHT22;4164;49.844;8.830;2023-02-13T05:14:09;1.70;99.90
8248;DHT22;4164;49.844;8.830;2023-02-13T05:16:35;1.70;99.90
8248;DHT22;4164;49.844;8.830;2023-02-13T05:19:00;1.70;99.90
8248;DHT22;4164;49.844;8.830;2023-02-13T05:21:26;1.70;99.90
8248;DHT22;4164;49.844;8.830;2023-02-13T05:24:10;1.70;99.90
8248;DHT22;4164;49.844;8.830;2023-02-13T05:26:36;1.80;99.90
8248;DHT22;4164;49.844;8.830;2023-02-13T05:29:01;1.80;99.90
8248;DHT22;4164;49.844;8.830;2023-02-13T05:31:49;1.70;99.90
8248;DHT22;4164;49.844;8.830;2023-02-13T05:34:15;1.70;99.90
8248;DHT22;4164;49.844;8.830;2023-02-13T05:36:41;1.80;99.90
8248;DHT22;4164;49.844;8.830;2023-02-13T05:39:07;1.70;99.90
8248;DHT22;4164;49.844;8.830;2023-02-13T05:41:32;1.80;99.90
8248;DHT22;4164;49.844;8.830;2023-02-13T05:43:58;1.70;99.90
8248;DHT22;4164;49.844;8.830;2023-02-13T05:46:24;1.70;99.90
8248;DHT22;4164;49.844;8.830;2023-02-13T05:48:50;1.70;99.90
8248;DHT22;4164;49.844;8.830;2023-02-13T05:51:16;1.60;99.90
8248;DHT22;4164;49.844;8.830;2023-02-13T05:53:42;1.50;99.90
8248;DHT22;4164;49.844;8.830;2023-02-13T05:56:08;1.50;99.90
8248;DHT22;4164;49.844;8.830;2023-02-13T05:58:34;1.50;99.90
8248;DHT22;4164;49.844;8.830;2023-02-13T06:01:00;1.40;99.90
8248;DHT22;4164;49.844;8.830;2023-02-13T06:03:27;1.50;99.90
8248;DHT22;4164;49.844;8.830;2023-02-13T06:05:54;1.50;99.90
8248;DHT22;4164;49.844;8.830;2023-02-13T06:08:20;1.20;99.90
8248;DHT22;4164;49.844;8.830;2023-02-13T06:10:46;1.00;99.90
8248;DHT22;4164;49.844;8.830;2023-02-13T06:13:12;1.20;99.90
8248;DHT22;4164;49.844;8.830;2023-02-13T06:15:38;1.30;99.90
8248;DHT22;4164;49.844;8.830;2023-02-13T06:18:04;1.30;99.90
8248;DHT22;4164;49.844;8.830;2023-02-13T06:20:29;1.40;99.90
8248;DHT22;4164;49.844;8.830;2023-02-13T06:22:55;1.40;99.90
8248;DHT22;4164;49.844;8.830;2023-02-13T06:25:20;1.20;99.90
8248;DHT22;4164;49.844;8.830;2023-02-13T06:27:46;1.20;99.90
8248;DHT22;4164;49.844;8.830;2023-02-13T06:30:12;1.30;99.90
8248;DHT22;4164;49.844;8.830;2023-02-13T06:32:41;1.30;99.90
8248;DHT22;4164;49.844;8.830;2023-02-13T06:35:08;1.00;99.90
8248;DHT22;4164;49.844;8.830;2023-02-13T06:37:33;0.90;99.90
8248;DHT22;4164;49.844;8.830;2023-02-13T06:39:59;1.00;99.90
8248;DHT22;4164;49.844;8.830;2023-02-13T06:42:25;1.10;99.90
8248;DHT22;4164;49.844;8.830;2023-02-13T06:44:50;1.20;99.90
8248;DHT22;4164;49.844;8.830;2023-02-13T06:47:16;1.20;99.90
8248;DHT22;4164;49.844;8.830;2023-02-13T06:49:41;1.10;99.90
8248;DHT22;4164;49.844;8.830;2023-02-13T06:52:07;0.60;99.90
8248;DHT22;4164;49.844;8.830;2023-02-13T06:54:33;0.60;99.90
8248;DHT22;4164;49.844;8.830;2023-02-13T06:56:58;0.60;99.90
8248;DHT22;4164;49.844;8.830;2023-02-13T06:59:24;0.60;99.90
8248;DHT22;4164;49.844;8.830;2023-02-13T07:01:49;0.90;99.90
8248;DHT22;4164;49.844;8.830;2023-02-13T07:04:15;1.10;99.90
8248;DHT22;4164;49.844;8.830;2023-02-13T07:06:40;1.00;99.90
8248;DHT22;4164;49.844;8.830;2023-02-13T07:09:06;1.00;99.90
8248;DHT22;4164;49.844;8.830;2023-02-13T07:11:31;1.00;99.90
8248;DHT22;4164;49.844;8.830;2023-02-13T07:13:57;1.00;99.90
8248;DHT22;4164;49.844;8.830;2023-02-13T07:16:23;1.10;99.90
8248;DHT22;4164;49.844;8.830;2023-02-13T07:18:48;1.10;99.90
8248;DHT22;4164;49.844;8.830;2023-02-13T07:21:14;1.20;99.90
8248;DHT22;4164;49.844;8.830;2023-02-13T07:23:39;1.20;99.90
8248;DHT22;4164;49.844;8.830;2023-02-13T07:26:05;1.20;99.90
8248;DHT22;4164;49.844;8.830;2023-02-13T07:28:31;1.30;99.90
8248;DHT22;4164;49.844;8.830;2023-02-13T07:30:57;1.20;99.90
8248;DHT22;4164;49.844;8.830;2023-02-13T07:33:27;1.30;99.90
8248;DHT22;4164;49.844;8.830;2023-02-13T07:35:52;1.30;99.90
8248;DHT22;4164;49.844;8.830;2023-02-13T07:38:18;1.40;99.90
8248;DHT22;4164;49.844;8.830;2023-02-13T07:40:44;1.50;99.90
8248;DHT22;4164;49.844;8.830;2023-02-13T07:43:10;1.80;99.90
8248;DHT22;4164;49.844;8.830;2023-02-13T07:45:36;2.00;99.90
8248;DHT22;4164;49.844;8.830;2023-02-13T07:48:02;2.10;99.90
8248;DHT22;4164;49.844;8.830;2023-02-13T07:50:28;2.20;99.90
8248;DHT22;4164;49.844;8.830;2023-02-13T07:52:58;2.20;99.90
8248;DHT22;4164;49.844;8.830;2023-02-13T07:55:25;2.30;99.90
8248;DHT22;4164;49.844;8.830;2023-02-13T07:57:51;2.20;99.90
8248;DHT22;4164;49.844;8.830;2023-02-13T08:00:17;2.30;99.90
8248;DHT22;4164;49.844;8.830;2023-02-13T08:02:43;2.40;99.90
8248;DHT22;4164;49.844;8.830;2023-02-13T08:05:09;2.60;99.90
8248;DHT22;4164;49.844;8.830;2023-02-13T08:07:35;2.40;99.90
8248;DHT22;4164;49.844;8.830;2023-02-13T08:10:00;2.50;99.90
8248;DHT22;4164;49.844;8.830;2023-02-13T08:12:45;2.50;99.90
8248;DHT22;4164;49.844;8.830;2023-02-13T08:15:12;2.70;99.90
8248;DHT22;4164;49.844;8.830;2023-02-13T08:17:38;2.90;99.90
8248;DHT22;4164;49.844;8.830;2023-02-13T08:20:04;3.10;99.90
8248;DHT22;4164;49.844;8.830;2023-02-13T08:22:34;3.30;99.90
8248;DHT22;4164;49.844;8.830;2023-02-13T08:25:00;3.30;99.90
8248;DHT22;4164;49.844;8.830;2023-02-13T08:27:26;3.50;99.90
8248;DHT22;4164;49.844;8.830;2023-02-13T08:29:54;3.60;99.90
8248;DHT22;4164;49.844;8.830;2023-02-13T08:32:20;3.90;99.90
8248;DHT22;4164;49.844;8.830;2023-02-13T08:34:46;4.00;99.90
8248;DHT22;4164;49.844;8.830;2023-02-13T08:37:11;3.90;99.90
8248;DHT22;4164;49.844;8.830;2023-02-13T08:39:37;4.00;99.90
8248;DHT22;4164;49.844;8.830;2023-02-13T08:42:02;4.00;99.90
8248;DHT22;4164;49.844;8.830;2023-02-13T08:44:28;4.10;99.90
8248;DHT22;4164;49.844;8.830;2023-02-13T08:46:54;4.40;99.90
8248;DHT22;4164;49.844;8.830;2023-02-13T08:49:19;4.20;99.90
8248;DHT22;4164;49.844;8.830;2023-02-13T08:51:45;4.20;99.90
8248;DHT22;4164;49.844;8.830;2023-02-13T08:54:11;4.30;99.90
8248;DHT22;4164;49.844;8.830;2023-02-13T08:56:36;4.60;99.90
8248;DHT22;4164;49.844;8.830;2023-02-13T08:59:02;4.90;99.90
8248;DHT22;4164;49.844;8.830;2023-02-13T09:01:27;5.00;99.90
8248;DHT22;4164;49.844;8.830;2023-02-13T09:03:54;5.30;99.90
8248;DHT22;4164;49.844;8.830;2023-02-13T09:06:19;5.40;99.90
8248;DHT22;4164;49.844;8.830;2023-02-13T09:08:45;5.60;99.90
8248;DHT22;4164;49.844;8.830;2023-02-13T09:11:10;5.70;99.90
8248;DHT22;4164;49.844;8.830;2023-02-13T09:13:36;5.80;99.90
8248;DHT22;4164;49.844;8.830;2023-02-13T09:16:04;6.00;99.90
8248;DHT22;4164;49.844;8.830;2023-02-13T09:18:33;6.10;99.90
8248;DHT22;4164;49.844;8.830;2023-02-13T09:21:02;6.50;99.90
8248;DHT22;4164;49.844;8.830;2023-02-13T09:23:36;7.30;99.90
8248;DHT22;4164;49.844;8.830;2023-02-13T09:26:03;7.60;99.90
8248;DHT22;4164;49.844;8.830;2023-02-13T09:28:30;7.70;99.90
8248;DHT22;4164;49.844;8.830;2023-02-13T09:30:56;7.80;99.90
8248;DHT22;4164;49.844;8.830;2023-02-13T09:33:22;8.10;99.90
8248;DHT22;4164;49.844;8.830;2023-02-13T09:35:48;8.30;99.90
8248;DHT22;4164;49.844;8.830;2023-02-13T09:38:13;8.60;99.90
8248;DHT22;4164;49.844;8.830;2023-02-13T09:43:26;8.50;99.90
8248;DHT22;4164;49.844;8.830;2023-02-13T09:45:57;8.30;99.90
8248;DHT22;4164;49.844;8.830;2023-02-13T09:48:29;8.30;99.90
8248;DHT22;4164;49.844;8.830;2023-02-13T09:50:57;8.60;99.90
8248;DHT22;4164;49.844;8.830;2023-02-13T09:53:26;8.70;99.90
8248;DHT22;4164;49.844;8.830;2023-02-13T10:01:12;8.90;99.90
8248;DHT22;4164;49.844;8.830;2023-02-13T10:03:42;9.10;99.90
8248;DHT22;4164;49.844;8.830;2023-02-13T10:09:15;9.40;99.90
8248;DHT22;4164;49.844;8.830;2023-02-13T10:11:44;9.70;99.90
8248;DHT22;4164;49.844;8.830;2023-02-13T10:14:18;9.80;99.90
8248;DHT22;4164;49.844;8.830;2023-02-13T10:16:54;11.30;99.90
8248;DHT22;4164;49.844;8.830;2023-02-13T10:19:43;14.10;99.90
8248;DHT22;4164;49.844;8.830;2023-02-13T10:22:16;15.90;99.90
8248;DHT22;4164;49.844;8.830;2023-02-13T10:24:47;17.30;97.60
8248;DHT22;4164;49.844;8.830;2023-02-13T10:27:44;18.30;92.00
8248;DHT22;4164;49.844;8.830;2023-02-13T10:30:23;19.10;89.80
8248;DHT22;4164;49.844;8.830;2023-02-13T10:33:16;19.90;81.50
8248;DHT22;4164;49.844;8.830;2023-02-13T10:38:32;21.50;68.80
8248;DHT22;4164;49.844;8.830;2023-02-13T10:49:33;23.70;55.20
8248;DHT22;4164;49.844;8.830;2023-02-13T10:52:18;24.30;54.30
8248;DHT22;4164;49.844;8.830;2023-02-13T11:00:48;24.40;53.50
8248;DHT22;4164;49.844;8.830;2023-02-13T11:03:18;24.20;52.40
8248;DHT22;4164;49.844;8.830;2023-02-13T11:05:44;26.10;49.10
8248;DHT22;4164;49.844;8.830;2023-02-13T11:08:33;25.50;48.50
8248;DHT22;4164;49.844;8.830;2023-02-13T11:10:59;25.00;49.60
8248;DHT22;4164;49.844;8.830;2023-02-13T11:13:27;25.20;49.70
8248;DHT22;4164;49.844;8.830;2023-02-13T11:18:26;25.90;47.10
8248;DHT22;4164;49.844;8.830;2023-02-13T11:21:13;26.10;46.00
8248;DHT22;4164;49.844;8.830;2023-02-13T11:24:07;25.50;46.20
8248;DHT22;4164;49.844;8.830;2023-02-13T11:26:42;26.20;46.00
8248;DHT22;4164;49.844;8.830;2023-02-13T11:29:29;25.30;46.50
8248;DHT22;4164;49.844;8.830;2023-02-13T11:32:17;25.10;46.50
8248;DHT22;4164;49.844;8.830;2023-02-13T11:34:43;25.90;45.70
8248;DHT22;4164;49.844;8.830;2023-02-13T11:39:38;26.30;45.30
8248;DHT22;4164;49.844;8.830;2023-02-13T11:42:34;25.80;46.00
8248;DHT22;4164;49.844;8.830;2023-02-13T11:45:22;26.70;43.90
8248;DHT22;4164;49.844;8.830;2023-02-13T11:47:49;26.50;44.00
8248;DHT22;4164;49.844;8.830;2023-02-13T11:50:27;27.10;43.80
8248;DHT22;4164;49.844;8.830;2023-02-13T11:58:02;26.20;43.00
8248;DHT22;4164;49.844;8.830;2023-02-13T12:00:33;26.50;41.90
8248;DHT22;4164;49.844;8.830;2023-02-13T12:03:22;26.20;44.70
8248;DHT22;4164;49.844;8.830;2023-02-13T12:08:35;26.70;42.60
8248;DHT22;4164;49.844;8.830;2023-02-13T12:13:51;25.80;42.40
8248;DHT22;4164;49.844;8.830;2023-02-13T12:16:37;27.20;41.70
8248;DHT22;4164;49.844;8.830;2023-02-13T12:19:11;27.30;41.50
8248;DHT22;4164;49.844;8.830;2023-02-13T12:36:21;25.50;43.30
8248;DHT22;4164;49.844;8.830;2023-02-13T12:47:23;27.00;40.60
8248;DHT22;4164;49.844;8.830;2023-02-13T12:50:03;27.70;41.90
8248;DHT22;4164;49.844;8.830;2023-02-13T12:55:47;26.50;42.00
8248;DHT22;4164;49.844;8.830;2023-02-13T12:58:23;26.40;41.40
8248;DHT22;4164;49.844;8.830;2023-02-13T13:11:58;25.80;43.20
8248;DHT22;4164;49.844;8.830;2023-02-13T13:17:34;25.80;42.70
8248;DHT22;4164;49.844;8.830;2023-02-13T13:22:50;23.10;44.70
8248;DHT22;4164;49.844;8.830;2023-02-13T13:25:26;21.30;46.80
8248;DHT22;4164;49.844;8.830;2023-02-13T13:27:58;21.40;46.50
8248;DHT22;4164;49.844;8.830;2023-02-13T13:30:28;20.30;47.70
8248;DHT22;4164;49.844;8.830;2023-02-13T13:35:43;20.70;49.20
8248;DHT22;4164;49.844;8.830;2023-02-13T13:40:58;21.60;48.40
8248;DHT22;4164;49.844;8.830;2023-02-13T13:46:40;21.20;48.90
8248;DHT22;4164;49.844;8.830;2023-02-13T13:51:38;17.60;53.60
8248;DHT22;4164;49.844;8.830;2023-02-13T13:59:18;15.00;56.70
8248;DHT22;4164;49.844;8.830;2023-02-13T14:01:44;14.70;60.60
8248;DHT22;4164;49.844;8.830;2023-02-13T14:11:51;13.50;61.70
8248;DHT22;4164;49.844;8.830;2023-02-13T14:16:56;13.30;65.60
8248;DHT22;4164;49.844;8.830;2023-02-13T14:19:33;13.10;64.00
8248;DHT22;4164;49.844;8.830;2023-02-13T14:24:50;13.10;67.50
8248;DHT22;4164;49.844;8.830;2023-02-13T14:29:56;13.00;68.20
8248;DHT22;4164;49.844;8.830;2023-02-13T14:32:36;13.00;69.60
8248;DHT22;4164;49.844;8.830;2023-02-13T14:35:17;12.90;70.30
8248;DHT22;4164;49.844;8.830;2023-02-13T14:37:50;12.70;69.70
8248;DHT22;4164;49.844;8.830;2023-02-13T14:42:45;12.60;71.20
8248;DHT22;4164;49.844;8.830;2023-02-13T14:45:17;12.60;73.70
8248;DHT22;4164;49.844;8.830;2023-02-13T14:47:46;12.40;72.70
8248;DHT22;4164;49.844;8.830;2023-02-13T14:52:47;12.20;75.40
8248;DHT22;4164;49.844;8.830;2023-02-13T14:55:29;12.10;77.30
8248;DHT22;4164;49.844;8.830;2023-02-13T14:58:09;12.00;77.40
8248;DHT22;4164;49.844;8.830;2023-02-13T15:00:50;12.00;79.10
8248;DHT22;4164;49.844;8.830;2023-02-13T15:05:53;11.90;81.60
8248;DHT22;4164;49.844;8.830;2023-02-13T15:08:25;12.00;82.30
8248;DHT22;4164;49.844;8.830;2023-02-13T15:10:53;11.90;82.20
8248;DHT22;4164;49.844;8.830;2023-02-13T15:13:22;11.90;84.90
8248;DHT22;4164;49.844;8.830;2023-02-13T15:16:01;11.80;83.50
8248;DHT22;4164;49.844;8.830;2023-02-13T15:18:38;11.70;85.10
8248;DHT22;4164;49.844;8.830;2023-02-13T15:21:05;11.60;86.00
8248;DHT22;4164;49.844;8.830;2023-02-13T15:23:32;11.40;85.80
8248;DHT22;4164;49.844;8.830;2023-02-13T15:25:59;11.40;87.60
8248;DHT22;4164;49.844;8.830;2023-02-13T15:28:26;11.20;88.30
8248;DHT22;4164;49.844;8.830;2023-02-13T15:30:54;11.20;89.10
8248;DHT22;4164;49.844;8.830;2023-02-13T15:33:22;11.10;90.10
8248;DHT22;4164;49.844;8.830;2023-02-13T15:36:00;11.10;90.20
8248;DHT22;4164;49.844;8.830;2023-02-13T15:38:32;10.80;90.90
8248;DHT22;4164;49.844;8.830;2023-02-13T15:41:11;10.80;91.60
8248;DHT22;4164;49.844;8.830;2023-02-13T15:43:42;10.70;91.80
8248;DHT22;4164;49.844;8.830;2023-02-13T15:46:24;10.60;93.30
8248;DHT22;4164;49.844;8.830;2023-02-13T15:48:55;10.90;94.20
8248;DHT22;4164;49.844;8.830;2023-02-13T15:51:24;10.40;94.70
8248;DHT22;4164;49.844;8.830;2023-02-13T15:56:48;10.30;95.10
8248;DHT22;4164;49.844;8.830;2023-02-13T15:59:15;10.30;95.50
8248;DHT22;4164;49.844;8.830;2023-02-13T16:01:42;10.20;95.80
8248;DHT22;4164;49.844;8.830;2023-02-13T16:04:15;10.00;96.30
8248;DHT22;4164;49.844;8.830;2023-02-13T16:06:43;9.90;97.40
8248;DHT22;4164;49.844;8.830;2023-02-13T16:09:42;9.80;97.70
8248;DHT22;4164;49.844;8.830;2023-02-13T16:12:23;9.80;98.60
8248;DHT22;4164;49.844;8.830;2023-02-13T16:14:55;9.60;99.20
8248;DHT22;4164;49.844;8.830;2023-02-13T16:22:35;9.20;99.90
8248;DHT22;4164;49.844;8.830;2023-02-13T16:27:39;9.10;99.90
8248;DHT22;4164;49.844;8.830;2023-02-13T16:30:06;9.00;99.90
8248;DHT22;4164;49.844;8.830;2023-02-13T16:32:42;8.90;99.90
8248;DHT22;4164;49.844;8.830;2023-02-13T16:35:35;8.90;99.90
8248;DHT22;4164;49.844;8.830;2023-02-13T16:38:02;8.80;99.90
8248;DHT22;4164;49.844;8.830;2023-02-13T16:40:38;8.80;99.90
8248;DHT22;4164;49.844;8.830;2023-02-13T16:51:34;8.60;99.90
8248;DHT22;4164;49.844;8.830;2023-02-13T17:07:37;8.00;99.90
8248;DHT22;4164;49.844;8.830;2023-02-13T17:12:53;7.80;99.90
8248;DHT22;4164;49.844;8.830;2023-02-13T17:15:21;7.60;99.90
8248;DHT22;4164;49.844;8.830;2023-02-13T17:17:47;7.40;99.90
8248;DHT22;4164;49.844;8.830;2023-02-13T17:20:18;7.20;99.90
8248;DHT22;4164;49.844;8.830;2023-02-13T17:22:47;7.20;99.90
8248;DHT22;4164;49.844;8.830;2023-02-13T17:25:20;7.20;99.90
8248;DHT22;4164;49.844;8.830;2023-02-13T17:27:51;7.30;99.90
8248;DHT22;4164;49.844;8.830;2023-02-13T17:30:20;7.40;99.90
8248;DHT22;4164;49.844;8.830;2023-02-13T17:32:46;7.10;99.90
8248;DHT22;4164;49.844;8.830;2023-02-13T17:35:13;6.90;99.90
8248;DHT22;4164;49.844;8.830;2023-02-13T17:37:42;7.00;99.90
8248;DHT22;4164;49.844;8.830;2023-02-13T17:40:17;7.10;99.90
8248;DHT22;4164;49.844;8.830;2023-02-13T17:42:45;7.20;99.90
8248;DHT22;4164;49.844;8.830;2023-02-13T17:45:14;7.20;99.90
8248;DHT22;4164;49.844;8.830;2023-02-13T17:47:40;7.30;99.90
8248;DHT22;4164;49.844;8.830;2023-02-13T17:50:06;7.20;99.90
8248;DHT22;4164;49.844;8.830;2023-02-13T17:52:32;7.10;99.90
8248;DHT22;4164;49.844;8.830;2023-02-13T17:54:58;6.90;99.90
8248;DHT22;4164;49.844;8.830;2023-02-13T17:57:23;6.90;99.90
8248;DHT22;4164;49.844;8.830;2023-02-13T17:59:49;6.90;99.90
8248;DHT22;4164;49.844;8.830;2023-02-13T18:02:23;6.80;99.90
8248;DHT22;4164;49.844;8.830;2023-02-13T18:04:51;6.70;99.90
8248;DHT22;4164;49.844;8.830;2023-02-13T18:07:18;6.50;99.90
8248;DHT22;4164;49.844;8.830;2023-02-13T18:09:45;6.50;99.90
8248;DHT22;4164;49.844;8.830;2023-02-13T18:12:16;6.60;99.90
8248;DHT22;4164;49.844;8.830;2023-02-13T18:14:42;6.60;99.90
8248;DHT22;4164;49.844;8.830;2023-02-13T18:17:08;6.50;99.90
8248;DHT22;4164;49.844;8.830;2023-02-13T18:19:34;6.40;99.90
8248;DHT22;4164;49.844;8.830;2023-02-13T18:22:00;6.60;99.90
8248;DHT22;4164;49.844;8.830;2023-02-13T18:24:30;6.50;99.90
8248;DHT22;4164;49.844;8.830;2023-02-13T18:26:56;6.40;99.90
8248;DHT22;4164;49.844;8.830;2023-02-13T18:29:22;6.30;99.90
8248;DHT22;4164;49.844;8.830;2023-02-13T18:31:47;6.30;99.90
8248;DHT22;4164;49.844;8.830;2023-02-13T18:34:15;6.20;99.90
8248;DHT22;4164;49.844;8.830;2023-02-13T18:36:41;6.20;99.90
8248;DHT22;4164;49.844;8.830;2023-02-13T18:39:07;6.20;99.90
8248;DHT22;4164;49.844;8.830;2023-02-13T18:41:32;6.10;99.90
8248;DHT22;4164;49.844;8.830;2023-02-13T18:43:58;6.10;99.90
8248;DHT22;4164;49.844;8.830;2023-02-13T18:46:23;6.10;99.90
8248;DHT22;4164;49.844;8.830;2023-02-13T18:48:49;6.00;99.90
8248;DHT22;4164;49.844;8.830;2023-02-13T18:51:15;6.20;99.90
8248;DHT22;4164;49.844;8.830;2023-02-13T18:53:40;6.30;99.90
8248;DHT22;4164;49.844;8.830;2023-02-13T18:56:06;6.30;99.90
8248;DHT22;4164;49.844;8.830;2023-02-13T18:58:34;6.10;99.90
8248;DHT22;4164;49.844;8.830;2023-02-13T19:01:11;6.20;99.90
8248;DHT22;4164;49.844;8.830;2023-02-13T19:03:37;6.20;99.90
8248;DHT22;4164;49.844;8.830;2023-02-13T19:06:05;6.20;99.90
8248;DHT22;4164;49.844;8.830;2023-02-13T19:08:31;6.10;99.90
8248;DHT22;4164;49.844;8.830;2023-02-13T19:13:28;5.90;99.90
8248;DHT22;4164;49.844;8.830;2023-02-13T19:15:54;5.90;99.90
8248;DHT22;4164;49.844;8.830;2023-02-13T19:18:19;5.80;99.90
8248;DHT22;4164;49.844;8.830;2023-02-13T19:20:45;5.80;99.90
8248;DHT22;4164;49.844;8.830;2023-02-13T19:23:10;5.80;99.90
8248;DHT22;4164;49.844;8.830;2023-02-13T19:25:36;5.80;99.90
8248;DHT22;4164;49.844;8.830;2023-02-13T19:28:02;5.70;99.90
8248;DHT22;4164;49.844;8.830;2023-02-13T19:30:28;5.70;99.90
8248;DHT22;4164;49.844;8.830;2023-02-13T19:32:54;5.40;99.90
8248;DHT22;4164;49.844;8.830;2023-02-13T19:35:19;5.40;99.90
8248;DHT22;4164;49.844;8.830;2023-02-13T19:37:45;5.20;99.90
8248;DHT22;4164;49.844;8.830;2023-02-13T19:40:12;5.20;99.90
8248;DHT22;4164;49.844;8.830;2023-02-13T19:42:37;5.00;99.90
8248;DHT22;4164;49.844;8.830;2023-02-13T19:45:03;4.90;99.90
8248;DHT22;4164;49.844;8.830;2023-02-13T19:47:29;4.70;99.90
8248;DHT22;4164;49.844;8.830;2023-02-13T19:49:54;4.60;99.90
8248;DHT22;4164;49.844;8.830;2023-02-13T19:52:20;4.50;99.90
8248;DHT22;4164;49.844;8.830;2023-02-13T19:54:46;4.50;99.90
8248;DHT22;4164;49.844;8.830;2023-02-13T19:57:12;4.40;99.90